Time;durP1;ratioP1;P1;durP2;ratioP2;P2;SDS_P1;SDS_P2;PMS_P1;PMS_P2;Temp;Humidity;BMP_temperature;BMP_pressure;BME280_temperature;BME280_humidity;BME280_pressure;Samples;Min_cycle;Max_cycle;Signal;HPM_P1;HPM_P2
2023/02/28 00:02:18;;;;;;;13.90;10.40;;;;;;;;;;5055781;28;20032;-77
2023/02/28 00:04:44;;;;;;;19.40;11.88;;;;;;;;;;5044028;28;20764;-77
2023/02/28 00:07:10;;;;;;;14.95;10.75;;;;;;;;;;5040454;28;20040;-77
2023/02/28 00:09:36;;;;;;;17.45;10.27;;;;;;;;;;5040161;28;20095;-77
2023/02/28 00:12:09;;;;;;;13.32;9.93;;;;;;;;;;5042869;28;20040;-77
2023/02/28 00:14:35;;;;;;;15.05;10.27;;;;;;;;;;5060299;28;20029;-77
2023/02/28 00:17:01;;;;;;;14.95;9.88;;;;;;;;;;5027301;28;20033;-77
2023/02/28 00:19:27;;;;;;;15.80;10.45;;;;;;;;;;5033379;28;20031;-76
2023/02/28 00:21:53;;;;;;;16.50;10.55;;;;;;;;;;5040759;28;20079;-76
2023/02/28 00:24:19;;;;;;;17.42;11.05;;;;;;;;;;5053838;28;20084;-74
2023/02/28 00:26:46;;;;;;;16.77;11.23;;;;;;;;;;5051979;28;20454;-77
2023/02/28 00:29:12;;;;;;;16.85;10.68;;;;;;;;;;5047011;28;20037;-77
2023/02/28 00:31:38;;;;;;;18.40;11.95;;;;;;;;;;5046088;28;20033;-76
2023/02/28 00:34:04;;;;;;;18.20;11.35;;;;;;;;;;5047686;28;20393;-76
2023/02/28 00:36:30;;;;;;;17.65;12.95;;;;;;;;;;5052763;28;20078;-76
2023/02/28 00:38:56;;;;;;;19.08;12.27;;;;;;;;;;5066394;28;20039;-76
2023/02/28 00:41:22;;;;;;;20.88;13.20;;;;;;;;;;5042135;28;20029;-76
2023/02/28 00:43:48;;;;;;;15.20;11.43;;;;;;;;;;5032103;28;20132;-76
2023/02/28 00:46:14;;;;;;;15.35;10.40;;;;;;;;;;5038965;28;20083;-76
2023/02/28 00:48:40;;;;;;;17.27;12.05;;;;;;;;;;5052948;28;20032;-76
2023/02/28 00:51:06;;;;;;;17.25;11.27;;;;;;;;;;5015168;28;20069;-76
2023/02/28 00:53:35;;;;;;;19.38;11.65;;;;;;;;;;5028587;28;20060;-76
2023/02/28 00:56:01;;;;;;;19.40;12.80;;;;;;;;;;5030665;28;20673;-76
2023/02/28 00:58:27;;;;;;;18.13;11.23;;;;;;;;;;5016243;28;20029;-76
2023/02/28 01:00:53;;;;;;;18.80;11.60;;;;;;;;;;5017352;28;20045;-76
2023/02/28 01:03:20;;;;;;;17.80;12.60;;;;;;;;;;5035364;28;20033;-76
2023/02/28 01:05:46;;;;;;;17.55;12.10;;;;;;;;;;5021468;28;20797;-76
2023/02/28 01:08:13;;;;;;;18.45;12.52;;;;;;;;;;5044182;28;20044;-76
2023/02/28 01:10:39;;;;;;;19.48;12.30;;;;;;;;;;5051188;28;20839;-76
2023/02/28 01:13:05;;;;;;;16.45;12.15;;;;;;;;;;5043389;28;20498;-76
2023/02/28 01:15:31;;;;;;;20.88;12.82;;;;;;;;;;5033438;28;20577;-76
2023/02/28 01:17:58;;;;;;;19.77;13.05;;;;;;;;;;5041345;28;20086;-76
2023/02/28 01:20:24;;;;;;;15.75;10.60;;;;;;;;;;5047931;28;20033;-76
2023/02/28 01:22:50;;;;;;;16.40;10.93;;;;;;;;;;5046116;28;20040;-76
2023/02/28 01:25:16;;;;;;;16.60;12.80;;;;;;;;;;5045864;28;20076;-76
2023/02/28 01:27:42;;;;;;;18.90;12.60;;;;;;;;;;5040672;28;20020;-76
2023/02/28 01:30:09;;;;;;;19.65;11.95;;;;;;;;;;5048504;28;20045;-76
2023/02/28 01:32:35;;;;;;;19.35;12.88;;;;;;;;;;5050442;28;20040;-76
2023/02/28 01:35:02;;;;;;;17.35;11.27;;;;;;;;;;5048527;28;20379;-76
2023/02/28 01:37:28;;;;;;;17.52;12.35;;;;;;;;;;5045863;28;20025;-76
2023/02/28 01:39:54;;;;;;;20.55;12.35;;;;;;;;;;5046472;28;20106;-76
2023/02/28 01:42:20;;;;;;;16.77;12.10;;;;;;;;;;5036468;28;20401;-76
2023/02/28 01:44:55;;;;;;;20.83;12.50;;;;;;;;;;5035591;28;20044;-76
2023/02/28 01:47:21;;;;;;;18.40;12.60;;;;;;;;;;5045442;28;20033;-76
2023/02/28 01:49:48;;;;;;;21.02;12.50;;;;;;;;;;5040271;28;20043;-76
2023/02/28 01:52:17;;;;;;;17.20;12.15;;;;;;;;;;5027878;28;20045;-76
2023/02/28 01:54:46;;;;;;;14.82;10.70;;;;;;;;;;5033753;28;20029;-76
2023/02/28 01:57:15;;;;;;;17.17;10.20;;;;;;;;;;5050044;28;20029;-76
2023/02/28 01:59:46;;;;;;;15.32;10.32;;;;;;;;;;5047209;28;20108;-76
2023/02/28 02:02:17;;;;;;;17.10;11.25;;;;;;;;;;5045800;28;20033;-76
2023/02/28 02:04:48;;;;;;;14.13;10.55;;;;;;;;;;5046962;28;20120;-76
2023/02/28 02:07:15;;;;;;;15.52;10.68;;;;;;;;;;5030784;28;20033;-76
2023/02/28 02:09:41;;;;;;;18.80;12.13;;;;;;;;;;5063771;28;20115;-76
2023/02/28 02:12:26;;;;;;;17.08;11.52;;;;;;;;;;5051621;28;20107;-76
2023/02/28 02:14:52;;;;;;;16.83;11.80;;;;;;;;;;5043919;28;20033;-76
2023/02/28 02:17:26;;;;;;;15.05;10.65;;;;;;;;;;5028454;28;20037;-76
2023/02/28 02:19:52;;;;;;;19.48;11.20;;;;;;;;;;5043939;28;20116;-76
2023/02/28 02:22:24;;;;;;;13.50;9.25;;;;;;;;;;5045791;28;20795;-76
2023/02/28 02:24:56;;;;;;;15.75;11.30;;;;;;;;;;5062067;28;20060;-76
2023/02/28 02:27:38;;;;;;;18.23;11.38;;;;;;;;;;5023127;28;20084;-76
2023/02/28 02:30:04;;;;;;;16.90;10.80;;;;;;;;;;5043240;28;20037;-76
2023/02/28 02:32:42;;;;;;;16.88;11.38;;;;;;;;;;5027590;28;20086;-76
2023/02/28 02:35:23;;;;;;;17.77;11.40;;;;;;;;;;5030907;28;20041;-76
2023/02/28 02:37:57;;;;;;;18.52;10.18;;;;;;;;;;5023928;28;20055;-75
2023/02/28 02:40:28;;;;;;;18.08;12.38;;;;;;;;;;5047086;28;20032;-76
2023/02/28 02:42:56;;;;;;;18.40;10.82;;;;;;;;;;5048187;28;20039;-76
2023/02/28 02:45:25;;;;;;;16.17;10.65;;;;;;;;;;5048654;28;20029;-76
2023/02/28 02:47:52;;;;;;;16.63;11.52;;;;;;;;;;5037865;28;20071;-76
2023/02/28 02:50:23;;;;;;;18.17;11.95;;;;;;;;;;5059085;28;20115;-76
2023/02/28 02:52:51;;;;;;;17.15;11.27;;;;;;;;;;5048833;28;20482;-76
2023/02/28 02:55:18;;;;;;;15.02;10.23;;;;;;;;;;5025164;28;20497;-77
2023/02/28 02:57:49;;;;;;;15.88;11.25;;;;;;;;;;5059891;28;20033;-76
2023/02/28 03:00:17;;;;;;;17.58;11.15;;;;;;;;;;5023456;28;20032;-76
2023/02/28 03:02:43;;;;;;;15.63;11.60;;;;;;;;;;5033791;28;20033;-76
2023/02/28 03:05:15;;;;;;;16.63;11.15;;;;;;;;;;5048182;28;20039;-77
2023/02/28 03:07:41;;;;;;;17.15;11.15;;;;;;;;;;5049038;28;20093;-76
2023/02/28 03:10:25;;;;;;;15.15;10.95;;;;;;;;;;5046972;28;20033;-77
2023/02/28 03:12:56;;;;;;;19.45;11.18;;;;;;;;;;5038836;28;20036;-76
2023/02/28 03:15:27;;;;;;;15.60;10.38;;;;;;;;;;5057945;28;20386;-76
2023/02/28 03:17:56;;;;;;;19.20;12.23;;;;;;;;;;5039232;28;20043;-76
2023/02/28 03:20:31;;;;;;;15.60;10.80;;;;;;;;;;5053171;28;20040;-76
2023/02/28 03:23:10;;;;;;;16.88;11.68;;;;;;;;;;5048951;28;20144;-76
2023/02/28 03:25:47;;;;;;;17.77;10.98;;;;;;;;;;5058871;28;20079;-76
2023/02/28 03:28:19;;;;;;;16.63;10.23;;;;;;;;;;5028388;28;20033;-76
2023/02/28 03:30:45;;;;;;;14.73;10.80;;;;;;;;;;5046739;28;20031;-76
2023/02/28 03:33:15;;;;;;;16.80;11.02;;;;;;;;;;5022030;28;20045;-76
2023/02/28 03:35:48;;;;;;;16.98;11.10;;;;;;;;;;5045883;28;20075;-76
2023/02/28 03:38:20;;;;;;;17.75;11.75;;;;;;;;;;5049832;28;20506;-76
2023/02/28 03:40:49;;;;;;;15.18;9.57;;;;;;;;;;5022265;28;20029;-76
2023/02/28 03:43:18;;;;;;;17.52;10.15;;;;;;;;;;5021176;28;20394;-76
2023/02/28 03:45:46;;;;;;;16.20;11.02;;;;;;;;;;5022511;28;20471;-76
2023/02/28 03:48:12;;;;;;;15.25;10.48;;;;;;;;;;5032281;28;20861;-76
2023/02/28 03:50:40;;;;;;;13.82;10.55;;;;;;;;;;5057131;28;20041;-76
2023/02/28 03:53:16;;;;;;;15.82;10.02;;;;;;;;;;5055731;28;20058;-76
2023/02/28 03:55:45;;;;;;;15.50;10.73;;;;;;;;;;5021725;28;20048;-76
2023/02/28 03:58:24;;;;;;;15.48;9.90;;;;;;;;;;5016465;28;20509;-76
2023/02/28 04:00:53;;;;;;;14.85;10.90;;;;;;;;;;5058596;28;20025;-76
2023/02/28 04:03:19;;;;;;;17.75;11.27;;;;;;;;;;5032737;28;20112;-76
2023/02/28 04:05:51;;;;;;;15.57;10.82;;;;;;;;;;5030737;28;21083;-76
2023/02/28 04:08:16;;;;;;;16.95;10.82;;;;;;;;;;5050524;28;20126;-76
2023/02/28 04:10:45;;;;;;;21.00;12.30;;;;;;;;;;5042467;28;20068;-76
2023/02/28 04:13:11;;;;;;;17.23;11.07;;;;;;;;;;5042143;28;20033;-76
2023/02/28 04:15:37;;;;;;;16.42;10.52;;;;;;;;;;5016673;28;20079;-76
2023/02/28 04:18:03;;;;;;;20.45;11.93;;;;;;;;;;5052213;28;20036;-76
2023/02/28 04:20:29;;;;;;;13.77;10.18;;;;;;;;;;5023717;28;20674;-76
2023/02/28 04:22:55;;;;;;;18.60;11.80;;;;;;;;;;5054730;28;20112;-76
2023/02/28 04:25:21;;;;;;;13.77;9.48;;;;;;;;;;5050533;28;20517;-76
2023/02/28 04:27:47;;;;;;;13.40;9.88;;;;;;;;;;5046371;28;20092;-76
2023/02/28 04:30:13;;;;;;;15.43;10.30;;;;;;;;;;5049282;28;20501;-76
2023/02/28 04:32:39;;;;;;;15.52;9.07;;;;;;;;;;5044898;28;20399;-76
2023/02/28 04:35:06;;;;;;;15.00;10.52;;;;;;;;;;5043700;28;20407;-76
2023/02/28 04:37:34;;;;;;;15.90;11.25;;;;;;;;;;5055065;28;20131;-77
2023/02/28 04:40:00;;;;;;;13.88;9.57;;;;;;;;;;5049288;28;20024;-76
2023/02/28 04:42:26;;;;;;;14.00;9.90;;;;;;;;;;5051249;28;20074;-76
2023/02/28 04:44:52;;;;;;;16.20;10.55;;;;;;;;;;5042454;28;20044;-76
2023/02/28 04:47:18;;;;;;;17.80;10.07;;;;;;;;;;5033665;28;20748;-76
2023/02/28 04:49:44;;;;;;;14.25;10.50;;;;;;;;;;5044226;28;20049;-76
2023/02/28 04:52:10;;;;;;;18.35;11.13;;;;;;;;;;5040270;28;20060;-76
2023/02/28 04:54:38;;;;;;;16.52;9.82;;;;;;;;;;5025146;28;20036;-76
2023/02/28 04:57:04;;;;;;;16.55;10.73;;;;;;;;;;5047424;28;20053;-76
2023/02/28 04:59:30;;;;;;;14.00;10.10;;;;;;;;;;5049125;28;20111;-76
2023/02/28 05:01:56;;;;;;;20.25;12.68;;;;;;;;;;5055889;28;20462;-76
2023/02/28 05:04:22;;;;;;;18.23;11.93;;;;;;;;;;5034170;28;20040;-76
2023/02/28 05:06:48;;;;;;;15.65;9.68;;;;;;;;;;5046672;28;20060;-76
2023/02/28 05:09:14;;;;;;;14.55;9.90;;;;;;;;;;5056667;28;20130;-76
2023/02/28 05:11:41;;;;;;;14.80;10.05;;;;;;;;;;5042423;28;20609;-76
2023/02/28 05:14:09;;;;;;;17.33;10.50;;;;;;;;;;5047901;28;20033;-76
2023/02/28 05:16:35;;;;;;;17.27;10.52;;;;;;;;;;5049642;28;20458;-76
2023/02/28 05:19:01;;;;;;;19.40;10.20;;;;;;;;;;5034442;28;20037;-76
2023/02/28 05:21:27;;;;;;;14.48;10.05;;;;;;;;;;5050861;28;20017;-76
2023/02/28 05:23:54;;;;;;;13.45;9.68;;;;;;;;;;5052692;28;20477;-76
2023/02/28 05:26:20;;;;;;;14.23;10.20;;;;;;;;;;5028882;28;20084;-76
2023/02/28 05:28:46;;;;;;;11.50;8.52;;;;;;;;;;5043824;28;20036;-76
2023/02/28 05:31:13;;;;;;;17.55;11.35;;;;;;;;;;5049675;28;20039;-76
2023/02/28 05:33:39;;;;;;;15.77;10.25;;;;;;;;;;5032543;28;20489;-76
2023/02/28 05:36:05;;;;;;;13.05;9.27;;;;;;;;;;5051308;28;20036;-76
2023/02/28 05:38:31;;;;;;;14.65;9.52;;;;;;;;;;5013335;28;20044;-76
2023/02/28 05:40:57;;;;;;;15.00;10.90;;;;;;;;;;5025902;28;20029;-76
2023/02/28 05:43:23;;;;;;;14.60;9.73;;;;;;;;;;5028999;28;20034;-76
2023/02/28 05:45:49;;;;;;;15.75;10.13;;;;;;;;;;5021207;28;20036;-76
2023/02/28 05:48:16;;;;;;;16.88;9.55;;;;;;;;;;5033233;28;20040;-76
2023/02/28 05:50:44;;;;;;;14.90;10.30;;;;;;;;;;5047261;28;20135;-77
2023/02/28 05:53:10;;;;;;;16.67;11.13;;;;;;;;;;5041454;28;20064;-76
2023/02/28 05:55:37;;;;;;;18.73;11.90;;;;;;;;;;5026473;28;20467;-76
2023/02/28 05:58:03;;;;;;;15.82;10.80;;;;;;;;;;5035460;28;20041;-76
2023/02/28 06:00:29;;;;;;;16.45;10.25;;;;;;;;;;5022680;28;20104;-76
2023/02/28 06:02:57;;;;;;;15.55;11.15;;;;;;;;;;5044066;28;20116;-76
2023/02/28 06:05:24;;;;;;;18.02;11.65;;;;;;;;;;5037643;28;20041;-76
2023/02/28 06:07:50;;;;;;;18.00;11.50;;;;;;;;;;5038249;28;20041;-76
2023/02/28 06:10:16;;;;;;;19.13;11.32;;;;;;;;;;5039352;28;20104;-76
2023/02/28 06:12:42;;;;;;;20.05;11.68;;;;;;;;;;5031235;28;20084;-76
2023/02/28 06:15:12;;;;;;;17.95;11.95;;;;;;;;;;5041261;28;20033;-76
2023/02/28 06:17:38;;;;;;;19.38;11.50;;;;;;;;;;5024864;28;20056;-76
2023/02/28 06:20:04;;;;;;;15.73;10.40;;;;;;;;;;5038829;28;20941;-76
2023/02/28 06:22:31;;;;;;;17.70;11.65;;;;;;;;;;5046673;28;20417;-76
2023/02/28 06:24:57;;;;;;;17.95;10.68;;;;;;;;;;5030969;28;20855;-76
2023/02/28 06:27:23;;;;;;;19.10;12.07;;;;;;;;;;5044035;28;20481;-76
2023/02/28 06:29:49;;;;;;;20.50;11.80;;;;;;;;;;5031267;28;20037;-76
2023/02/28 06:32:15;;;;;;;21.75;12.60;;;;;;;;;;5034090;28;20037;-76
2023/02/28 06:34:41;;;;;;;20.27;12.43;;;;;;;;;;5033865;28;20043;-76
2023/02/28 06:37:07;;;;;;;20.42;13.27;;;;;;;;;;5041610;28;20036;-76
2023/02/28 06:39:33;;;;;;;20.35;13.23;;;;;;;;;;5041751;28;20642;-76
2023/02/28 06:42:00;;;;;;;20.55;13.32;;;;;;;;;;5045969;28;20025;-76
2023/02/28 06:44:25;;;;;;;17.67;11.18;;;;;;;;;;5048865;28;20553;-76
2023/02/28 06:46:51;;;;;;;18.48;12.93;;;;;;;;;;5038070;28;20103;-76
2023/02/28 06:49:18;;;;;;;19.48;12.00;;;;;;;;;;5036889;28;20084;-76
2023/02/28 06:51:45;;;;;;;18.25;12.07;;;;;;;;;;5041556;28;20592;-76
2023/02/28 06:54:11;;;;;;;19.27;11.20;;;;;;;;;;5044058;28;20079;-76
2023/02/28 06:56:37;;;;;;;18.27;12.65;;;;;;;;;;5046586;28;20063;-76
2023/02/28 06:59:04;;;;;;;19.48;11.70;;;;;;;;;;5050253;28;20037;-76
2023/02/28 07:01:31;;;;;;;19.27;12.50;;;;;;;;;;5049361;28;20104;-76
2023/02/28 07:03:58;;;;;;;22.05;12.27;;;;;;;;;;5049264;28;20060;-76
2023/02/28 07:06:24;;;;;;;16.70;11.65;;;;;;;;;;5049129;28;20104;-76
2023/02/28 07:08:51;;;;;;;21.02;12.65;;;;;;;;;;5050997;28;20052;-76
2023/02/28 07:11:18;;;;;;;18.00;12.07;;;;;;;;;;5044496;28;20036;-76
2023/02/28 07:13:44;;;;;;;17.38;11.50;;;;;;;;;;5047712;28;20071;-76
2023/02/28 07:16:11;;;;;;;17.50;11.88;;;;;;;;;;5045486;28;20029;-76
2023/02/28 07:18:37;;;;;;;17.77;12.07;;;;;;;;;;5046355;28;20029;-76
2023/02/28 07:21:04;;;;;;;21.67;12.32;;;;;;;;;;5046943;28;20108;-76
2023/02/28 07:23:30;;;;;;;19.45;13.48;;;;;;;;;;5042594;28;20040;-76
2023/02/28 07:25:56;;;;;;;17.80;13.15;;;;;;;;;;5049007;28;20098;-76
2023/02/28 07:28:22;;;;;;;17.58;12.90;;;;;;;;;;5039414;28;20144;-76
2023/02/28 07:30:48;;;;;;;20.15;12.88;;;;;;;;;;5020473;28;20128;-76
2023/02/28 07:33:14;;;;;;;18.23;12.88;;;;;;;;;;5042388;28;20037;-76
2023/02/28 07:35:40;;;;;;;18.48;12.13;;;;;;;;;;5045760;28;20021;-76
2023/02/28 07:38:07;;;;;;;24.55;12.65;;;;;;;;;;5041566;28;20033;-76
2023/02/28 07:40:33;;;;;;;21.17;13.07;;;;;;;;;;5050342;28;20017;-76
2023/02/28 07:43:00;;;;;;;20.80;13.38;;;;;;;;;;5048144;28;20419;-76
2023/02/28 07:45:26;;;;;;;17.63;11.55;;;;;;;;;;5045229;28;20036;-76
2023/02/28 07:47:52;;;;;;;16.88;12.50;;;;;;;;;;5045962;28;20111;-76
2023/02/28 07:50:18;;;;;;;17.50;13.07;;;;;;;;;;5042926;28;20449;-76
2023/02/28 07:52:44;;;;;;;21.00;12.85;;;;;;;;;;5052873;28;20463;-76
2023/02/28 07:55:10;;;;;;;24.25;12.48;;;;;;;;;;5043926;28;20079;-76
2023/02/28 07:57:37;;;;;;;22.95;12.73;;;;;;;;;;5048079;28;20028;-76
2023/02/28 08:00:07;;;;;;;20.95;14.18;;;;;;;;;;5042510;28;20032;-76
2023/02/28 08:02:33;;;;;;;22.35;13.38;;;;;;;;;;5037638;28;20038;-76
2023/02/28 08:05:00;;;;;;;23.45;14.02;;;;;;;;;;5045369;28;20033;-76
2023/02/28 08:07:26;;;;;;;21.58;14.15;;;;;;;;;;5045299;28;20039;-76
2023/02/28 08:09:52;;;;;;;19.00;13.13;;;;;;;;;;5043744;28;20033;-76
2023/02/28 08:12:18;;;;;;;21.63;13.07;;;;;;;;;;5046872;28;20033;-76
2023/02/28 08:14:44;;;;;;;18.30;12.68;;;;;;;;;;5045853;28;20368;-76
2023/02/28 08:17:11;;;;;;;18.88;13.27;;;;;;;;;;5051255;28;20057;-76
2023/02/28 08:19:37;;;;;;;19.15;13.38;;;;;;;;;;5049103;28;20035;-76
2023/02/28 08:22:03;;;;;;;23.30;14.35;;;;;;;;;;5048033;28;20029;-76
2023/02/28 08:24:30;;;;;;;23.65;13.93;;;;;;;;;;5043306;28;20081;-76
2023/02/28 08:26:56;;;;;;;21.17;13.48;;;;;;;;;;5042184;28;20029;-76
2023/02/28 08:29:22;;;;;;;21.38;12.85;;;;;;;;;;5045675;28;20114;-76
2023/02/28 08:31:48;;;;;;;21.98;13.75;;;;;;;;;;5050494;28;20059;-76
2023/02/28 08:34:15;;;;;;;21.13;13.27;;;;;;;;;;5049627;28;20037;-76
2023/02/28 08:36:42;;;;;;;20.30;13.40;;;;;;;;;;5051595;28;20103;-76
2023/02/28 08:39:08;;;;;;;19.15;13.98;;;;;;;;;;5053479;28;20079;-76
2023/02/28 08:41:35;;;;;;;18.98;12.70;;;;;;;;;;5050813;28;20458;-76
2023/02/28 08:44:01;;;;;;;24.58;13.23;;;;;;;;;;5040337;28;20739;-76
2023/02/28 08:46:27;;;;;;;21.70;13.70;;;;;;;;;;5046455;28;20033;-76
2023/02/28 08:48:54;;;;;;;22.70;14.07;;;;;;;;;;5049355;28;20038;-76
2023/02/28 08:51:25;;;;;;;24.65;13.48;;;;;;;;;;5045989;28;20344;-76
2023/02/28 08:53:51;;;;;;;20.10;12.85;;;;;;;;;;5044164;28;20124;-76
2023/02/28 08:56:17;;;;;;;22.00;14.02;;;;;;;;;;5040148;28;20056;-76
2023/02/28 08:58:44;;;;;;;23.38;14.38;;;;;;;;;;5042580;28;20044;-76
2023/02/28 09:01:10;;;;;;;19.02;13.50;;;;;;;;;;5043013;28;20039;-76
2023/02/28 09:03:36;;;;;;;18.30;12.50;;;;;;;;;;5045619;28;20032;-76
2023/02/28 09:06:02;;;;;;;21.95;13.60;;;;;;;;;;5055182;28;20540;-76
2023/02/28 09:08:33;;;;;;;21.30;13.68;;;;;;;;;;5050885;28;20079;-76
2023/02/28 09:10:59;;;;;;;18.88;13.10;;;;;;;;;;5043188;28;20043;-76
2023/02/28 09:13:25;;;;;;;24.10;15.05;;;;;;;;;;5044398;28;20033;-76
2023/02/28 09:15:52;;;;;;;20.50;14.07;;;;;;;;;;5042277;28;20033;-76
2023/02/28 09:18:18;;;;;;;18.52;13.13;;;;;;;;;;5055691;28;20501;-76
2023/02/28 09:20:44;;;;;;;20.10;12.73;;;;;;;;;;5033912;28;20607;-76
2023/02/28 09:23:11;;;;;;;18.00;12.82;;;;;;;;;;5043436;28;20102;-76
2023/02/28 09:25:37;;;;;;;18.92;13.32;;;;;;;;;;5044898;28;20569;-76
2023/02/28 09:28:04;;;;;;;17.02;13.00;;;;;;;;;;5031553;28;20079;-76
2023/02/28 09:30:30;;;;;;;21.42;15.73;;;;;;;;;;5049007;28;20029;-76
2023/02/28 09:32:56;;;;;;;21.88;14.55;;;;;;;;;;5041581;28;20471;-76
2023/02/28 09:35:23;;;;;;;21.05;14.55;;;;;;;;;;5041353;28;20033;-76
2023/02/28 09:37:51;;;;;;;27.60;16.10;;;;;;;;;;5039601;28;20042;-76
2023/02/28 09:40:17;;;;;;;22.63;15.88;;;;;;;;;;5023700;28;20801;-76
2023/02/28 09:42:46;;;;;;;22.67;13.80;;;;;;;;;;5040971;28;20112;-76
2023/02/28 09:45:24;;;;;;;23.95;15.35;;;;;;;;;;5034123;28;20072;-76
2023/02/28 09:47:50;;;;;;;17.55;12.00;;;;;;;;;;5039016;28;20042;-76
2023/02/28 09:50:52;;;;;;;19.58;12.85;;;;;;;;;;5041689;28;20099;-76
2023/02/28 09:53:27;;;;;;;20.90;13.85;;;;;;;;;;4964470;28;20047;-76
2023/02/28 09:55:55;;;;;;;23.13;13.65;;;;;;;;;;5032342;28;20041;-76
2023/02/28 09:58:24;;;;;;;19.73;14.32;;;;;;;;;;5042706;28;20514;-76
2023/02/28 10:00:57;;;;;;;18.65;13.85;;;;;;;;;;5045511;28;20049;-76
2023/02/28 10:03:33;;;;;;;19.20;13.85;;;;;;;;;;5043422;28;20111;-76
2023/02/28 10:06:17;;;;;;;21.88;13.80;;;;;;;;;;5036131;28;20036;-77
2023/02/28 10:08:51;;;;;;;19.42;14.77;;;;;;;;;;5022511;28;20046;-76
2023/02/28 10:11:17;;;;;;;22.15;13.93;;;;;;;;;;5048862;28;20377;-76
2023/02/28 10:13:50;;;;;;;19.08;13.90;;;;;;;;;;5052492;28;20059;-76
2023/02/28 10:16:28;;;;;;;19.35;13.73;;;;;;;;;;5028244;28;20017;-76
2023/02/28 10:19:11;;;;;;;20.85;14.10;;;;;;;;;;5049280;28;20064;-76
2023/02/28 10:21:40;;;;;;;17.85;13.50;;;;;;;;;;5045746;28;20021;-76
2023/02/28 10:24:15;;;;;;;18.63;13.70;;;;;;;;;;5043695;28;20055;-76
2023/02/28 10:26:44;;;;;;;18.35;12.77;;;;;;;;;;5037652;28;20563;-76
2023/02/28 10:29:10;;;;;;;22.83;14.65;;;;;;;;;;5039419;28;20124;-76
2023/02/28 10:31:36;;;;;;;20.63;14.63;;;;;;;;;;5045480;28;20076;-76
2023/02/28 10:34:04;;;;;;;22.10;14.20;;;;;;;;;;5046296;28;20426;-76
2023/02/28 10:36:30;;;;;;;17.60;12.75;;;;;;;;;;5053686;28;20021;-76
2023/02/28 10:38:56;;;;;;;21.67;15.23;;;;;;;;;;5043986;28;20040;-76
2023/02/28 10:41:28;;;;;;;20.67;14.95;;;;;;;;;;5045221;28;20033;-76
2023/02/28 10:44:12;;;;;;;19.15;13.32;;;;;;;;;;5026136;28;20098;-76
2023/02/28 10:46:40;;;;;;;17.67;13.90;;;;;;;;;;5021014;28;20038;-76
2023/02/28 10:49:07;;;;;;;21.80;13.93;;;;;;;;;;5042176;28;20041;-76
2023/02/28 10:51:40;;;;;;;17.60;13.98;;;;;;;;;;5046561;28;20034;-76
2023/02/28 10:54:14;;;;;;;18.75;14.63;;;;;;;;;;5040958;28;20037;-76
2023/02/28 10:56:40;;;;;;;20.25;13.77;;;;;;;;;;5046255;28;20025;-76
2023/02/28 10:59:15;;;;;;;17.67;13.55;;;;;;;;;;5040712;28;20433;-76
2023/02/28 11:01:41;;;;;;;23.30;13.70;;;;;;;;;;5043889;28;20482;-76
2023/02/28 11:04:22;;;;;;;18.45;13.60;;;;;;;;;;5040514;28;20040;-76
2023/02/28 11:06:57;;;;;;;21.05;13.25;;;;;;;;;;5023390;28;20082;-76
2023/02/28 11:09:28;;;;;;;21.80;13.15;;;;;;;;;;5046275;28;20029;-76
2023/02/28 11:11:54;;;;;;;17.13;13.00;;;;;;;;;;5034997;28;20029;-76
2023/02/28 11:14:31;;;;;;;21.90;13.77;;;;;;;;;;5045533;28;20576;-76
2023/02/28 11:17:01;;;;;;;19.83;14.32;;;;;;;;;;5017203;28;20423;-76
2023/02/28 11:19:32;;;;;;;20.23;14.15;;;;;;;;;;5040329;28;20025;-76
2023/02/28 11:21:59;;;;;;;19.87;13.17;;;;;;;;;;5044295;28;20104;-77
2023/02/28 11:24:31;;;;;;;17.85;13.65;;;;;;;;;;5042551;28;20301;-76
2023/02/28 11:26:57;;;;;;;18.30;13.10;;;;;;;;;;5049720;28;20039;-77
2023/02/28 11:29:30;;;;;;;16.33;12.57;;;;;;;;;;5039730;28;20036;-76
2023/02/28 11:32:04;;;;;;;17.25;12.80;;;;;;;;;;5042487;28;20116;-76
2023/02/28 11:34:30;;;;;;;18.73;14.43;;;;;;;;;;5046034;28;20108;-76
2023/02/28 11:36:57;;;;;;;19.00;13.27;;;;;;;;;;5044101;28;20045;-76
2023/02/28 11:39:24;;;;;;;18.67;12.50;;;;;;;;;;5045829;28;20032;-76
2023/02/28 11:42:01;;;;;;;17.25;13.18;;;;;;;;;;5047139;28;20070;-76
2023/02/28 11:44:27;;;;;;;18.00;13.77;;;;;;;;;;5045967;28;20030;-76
2023/02/28 11:46:57;;;;;;;18.35;12.60;;;;;;;;;;5050728;28;20378;-76
2023/02/28 11:49:45;;;;;;;16.67;12.85;;;;;;;;;;5020436;28;20501;-76
2023/02/28 11:52:29;;;;;;;18.27;13.40;;;;;;;;;;5031263;28;20504;-76
2023/02/28 11:54:55;;;;;;;19.95;13.38;;;;;;;;;;5053989;28;20068;-76
2023/02/28 11:57:21;;;;;;;20.77;15.10;;;;;;;;;;5050943;28;20071;-76
2023/02/28 11:59:50;;;;;;;18.63;14.07;;;;;;;;;;5045443;28;20080;-76
2023/02/28 12:02:16;;;;;;;16.95;12.48;;;;;;;;;;5043825;28;20389;-76
2023/02/28 12:04:48;;;;;;;19.60;12.88;;;;;;;;;;5046191;28;20079;-76
2023/02/28 12:07:30;;;;;;;17.58;13.60;;;;;;;;;;5043947;28;20071;-76
2023/02/28 12:10:15;;;;;;;20.50;13.43;;;;;;;;;;5050444;28;20498;-76
2023/02/28 12:12:50;;;;;;;19.63;14.10;;;;;;;;;;5043238;28;20044;-76
2023/02/28 12:15:19;;;;;;;18.23;13.38;;;;;;;;;;5043017;28;20108;-76
2023/02/28 12:18:04;;;;;;;16.33;12.35;;;;;;;;;;5042936;28;20033;-76
2023/02/28 12:20:33;;;;;;;19.60;12.73;;;;;;;;;;5056316;28;20033;-76
2023/02/28 12:22:59;;;;;;;16.40;11.90;;;;;;;;;;5040156;28;20033;-77
2023/02/28 12:25:25;;;;;;;18.92;12.95;;;;;;;;;;5046648;28;20099;-76
2023/02/28 12:27:53;;;;;;;17.05;12.77;;;;;;;;;;5040982;28;20067;-76
2023/02/28 12:30:25;;;;;;;15.85;11.55;;;;;;;;;;5050031;28;20124;-76
2023/02/28 12:33:01;;;;;;;19.48;12.48;;;;;;;;;;5039415;28;20041;-76
2023/02/28 12:35:33;;;;;;;16.73;11.82;;;;;;;;;;5046832;28;20033;-76
2023/02/28 12:38:19;;;;;;;18.58;11.52;;;;;;;;;;5039828;28;20129;-77
2023/02/28 12:41:02;;;;;;;18.55;13.77;;;;;;;;;;5041743;28;20025;-76
2023/02/28 12:43:39;;;;;;;18.60;13.20;;;;;;;;;;5038180;28;20148;-76
2023/02/28 12:46:23;;;;;;;17.63;13.15;;;;;;;;;;5049860;28;20558;-76
2023/02/28 12:49:12;;;;;;;17.77;11.73;;;;;;;;;;5044501;28;20082;-76
2023/02/28 12:51:38;;;;;;;19.17;13.32;;;;;;;;;;5031264;28;20052;-76
2023/02/28 12:54:27;;;;;;;21.75;14.98;;;;;;;;;;5044691;28;20120;-76
2023/02/28 12:56:56;;;;;;;18.35;13.65;;;;;;;;;;4993976;28;20091;-76
2023/02/28 12:59:40;;;;;;;20.15;13.48;;;;;;;;;;5040655;28;20037;-76
2023/02/28 13:02:24;;;;;;;19.10;12.73;;;;;;;;;;5050085;28;20032;-76
2023/02/28 13:04:53;;;;;;;20.88;14.32;;;;;;;;;;5042110;28;20037;-76
2023/02/28 13:07:38;;;;;;;19.08;13.63;;;;;;;;;;5038615;28;20037;-76
2023/02/28 13:10:06;;;;;;;21.48;15.25;;;;;;;;;;5046837;28;20032;-76
2023/02/28 13:12:33;;;;;;;17.27;14.15;;;;;;;;;;5038048;28;20457;-76
2023/02/28 13:15:05;;;;;;;17.83;13.50;;;;;;;;;;5049162;28;20068;-76
2023/02/28 13:17:31;;;;;;;20.45;13.75;;;;;;;;;;5050132;28;20032;-76
2023/02/28 13:20:00;;;;;;;18.70;14.77;;;;;;;;;;5041035;28;20033;-76
2023/02/28 13:22:26;;;;;;;18.48;13.80;;;;;;;;;;5046463;28;20028;-76
2023/02/28 13:24:53;;;;;;;17.02;12.50;;;;;;;;;;5048072;28;20057;-76
2023/02/28 13:27:25;;;;;;;27.38;14.23;;;;;;;;;;5049175;28;20032;-76
2023/02/28 13:29:51;;;;;;;19.83;13.80;;;;;;;;;;5043629;28;20041;-76
2023/02/28 13:32:26;;;;;;;17.77;13.65;;;;;;;;;;5042457;28;20044;-76
2023/02/28 13:34:52;;;;;;;22.42;15.85;;;;;;;;;;5038363;28;20043;-76
2023/02/28 13:37:18;;;;;;;18.58;14.15;;;;;;;;;;5036691;28;20029;-76
2023/02/28 13:39:44;;;;;;;20.67;14.20;;;;;;;;;;5045133;28;20037;-76
2023/02/28 13:42:22;;;;;;;18.27;13.82;;;;;;;;;;5053453;28;20039;-76
2023/02/28 13:45:04;;;;;;;19.58;14.32;;;;;;;;;;5046790;28;20033;-76
2023/02/28 13:47:33;;;;;;;16.60;13.32;;;;;;;;;;5042569;28;20033;-76
2023/02/28 13:50:17;;;;;;;20.27;15.07;;;;;;;;;;5041342;28;20037;-76
2023/02/28 13:52:54;;;;;;;19.52;13.98;;;;;;;;;;5041424;28;20052;-76
2023/02/28 13:55:39;;;;;;;17.92;14.55;;;;;;;;;;5048923;28;20075;-76
2023/02/28 13:58:12;;;;;;;18.45;13.00;;;;;;;;;;5042489;28;20043;-76
2023/02/28 14:00:41;;;;;;;21.98;15.40;;;;;;;;;;5043632;28;20076;-76
2023/02/28 14:03:26;;;;;;;21.45;14.73;;;;;;;;;;5037517;28;20033;-76
2023/02/28 14:06:09;;;;;;;20.17;15.68;;;;;;;;;;5037051;28;20049;-76
2023/02/28 14:08:35;;;;;;;19.35;12.77;;;;;;;;;;5049559;28;20044;-76
2023/02/28 14:11:06;;;;;;;17.70;13.45;;;;;;;;;;5042907;28;20029;-76
2023/02/28 14:13:44;;;;;;;18.90;15.05;;;;;;;;;;5044399;28;20050;-76
2023/02/28 14:16:11;;;;;;;18.75;15.23;;;;;;;;;;5042563;28;20025;-77
2023/02/28 14:18:41;;;;;;;25.08;14.50;;;;;;;;;;5046344;28;20033;-76
2023/02/28 14:21:10;;;;;;;21.67;14.98;;;;;;;;;;5045650;28;20365;-76
2023/02/28 14:23:44;;;;;;;17.13;14.30;;;;;;;;;;5046733;28;20044;-76
2023/02/28 14:26:29;;;;;;;18.23;14.35;;;;;;;;;;5036139;28;20044;-76
2023/02/28 14:29:14;;;;;;;16.63;12.43;;;;;;;;;;5041352;28;20048;-76
2023/02/28 14:32:02;;;;;;;19.70;14.27;;;;;;;;;;5045669;28;20039;-76